sensor_id;sensor_type;location;lat;lon;timestamp;temperature;humidity
39503;DHT22;26970;49.900;10.774;2024-01-15T00:00:38;-4.00;99.90
39503;DHT22;26970;49.900;10.774;2024-01-15T00:03:04;-4.00;99.90
39503;DHT22;26970;49.900;10.774;2024-01-15T00:05:30;-4.00;99.90
39503;DHT22;26970;49.900;10.774;2024-01-15T00:07:56;-4.00;99.90
39503;DHT22;26970;49.900;10.774;2024-01-15T00:10:21;-4.00;99.90
39503;DHT22;26970;49.900;10.774;2024-01-15T00:12:47;-4.00;99.90
39503;DHT22;26970;49.900;10.774;2024-01-15T00:15:12;-4.50;99.90
39503;DHT22;26970;49.900;10.774;2024-01-15T00:17:39;-3.90;99.90
39503;DHT22;26970;49.900;10.774;2024-01-15T00:20:05;-3.90;99.90
39503;DHT22;26970;49.900;10.774;2024-01-15T00:22:31;-3.90;99.90
39503;DHT22;26970;49.900;10.774;2024-01-15T00:24:57;-3.90;99.90
39503;DHT22;26970;49.900;10.774;2024-01-15T00:27:23;-3.90;99.90
39503;DHT22;26970;49.900;10.774;2024-01-15T00:29:49;-3.80;99.90
39503;DHT22;26970;49.900;10.774;2024-01-15T00:32:16;-3.80;99.90
39503;DHT22;26970;49.900;10.774;2024-01-15T00:34:42;-3.80;99.90
39503;DHT22;26970;49.900;10.774;2024-01-15T00:37:07;-3.90;99.90
39503;DHT22;26970;49.900;10.774;2024-01-15T00:39:33;-3.90;99.90
39503;DHT22;26970;49.900;10.774;2024-01-15T00:41:59;-3.90;99.90
39503;DHT22;26970;49.900;10.774;2024-01-15T00:44:25;-3.80;99.90
39503;DHT22;26970;49.900;10.774;2024-01-15T00:46:50;-3.80;99.90
39503;DHT22;26970;49.900;10.774;2024-01-15T00:49:16;-3.80;99.90
39503;DHT22;26970;49.900;10.774;2024-01-15T00:51:41;-3.90;99.90
39503;DHT22;26970;49.900;10.774;2024-01-15T00:54:07;-3.90;99.90
39503;DHT22;26970;49.900;10.774;2024-01-15T00:56:33;-3.90;99.90
39503;DHT22;26970;49.900;10.774;2024-01-15T00:58:59;-3.90;99.90
39503;DHT22;26970;49.900;10.774;2024-01-15T01:01:25;-3.90;99.90
39503;DHT22;26970;49.900;10.774;2024-01-15T01:03:50;-3.90;99.90
39503;DHT22;26970;49.900;10.774;2024-01-15T01:06:16;-3.90;99.90
39503;DHT22;26970;49.900;10.774;2024-01-15T01:08:42;-4.00;99.90
39503;DHT22;26970;49.900;10.774;2024-01-15T01:11:07;-4.00;99.90
39503;DHT22;26970;49.900;10.774;2024-01-15T01:13:33;-3.90;99.90
39503;DHT22;26970;49.900;10.774;2024-01-15T01:15:58;-3.90;99.90
39503;DHT22;26970;49.900;10.774;2024-01-15T01:18:24;-3.90;99.90
39503;DHT22;26970;49.900;10.774;2024-01-15T01:20:50;-3.90;99.90
39503;DHT22;26970;49.900;10.774;2024-01-15T01:23:16;-3.90;99.90
39503;DHT22;26970;49.900;10.774;2024-01-15T01:25:42;-4.00;99.90
39503;DHT22;26970;49.900;10.774;2024-01-15T01:28:07;-3.90;99.90
39503;DHT22;26970;49.900;10.774;2024-01-15T01:30:33;-3.90;99.90
39503;DHT22;26970;49.900;10.774;2024-01-15T01:32:59;-3.90;99.90
39503;DHT22;26970;49.900;10.774;2024-01-15T01:35:24;-3.90;99.90
39503;DHT22;26970;49.900;10.774;2024-01-15T01:37:50;-3.90;99.90
39503;DHT22;26970;49.900;10.774;2024-01-15T01:40:15;-3.90;99.90
39503;DHT22;26970;49.900;10.774;2024-01-15T01:42:41;-3.90;99.90
39503;DHT22;26970;49.900;10.774;2024-01-15T01:45:07;-3.80;99.90
39503;DHT22;26970;49.900;10.774;2024-01-15T01:47:34;-3.80;99.90
39503;DHT22;26970;49.900;10.774;2024-01-15T01:49:59;-3.80;99.90
39503;DHT22;26970;49.900;10.774;2024-01-15T01:52:26;-3.80;99.90
39503;DHT22;26970;49.900;10.774;2024-01-15T01:54:52;-3.90;99.90
39503;DHT22;26970;49.900;10.774;2024-01-15T01:57:18;-3.80;99.90
39503;DHT22;26970;49.900;10.774;2024-01-15T01:59:45;-3.40;99.90
39503;DHT22;26970;49.900;10.774;2024-01-15T02:02:13;-3.80;99.90
39503;DHT22;26970;49.900;10.774;2024-01-15T02:04:39;-3.80;99.90
39503;DHT22;26970;49.900;10.774;2024-01-15T02:07:05;-3.70;99.90
39503;DHT22;26970;49.900;10.774;2024-01-15T02:09:31;-3.70;99.90
39503;DHT22;26970;49.900;10.774;2024-01-15T02:11:57;-3.70;99.90
39503;DHT22;26970;49.900;10.774;2024-01-15T02:14:23;-3.70;99.90
39503;DHT22;26970;49.900;10.774;2024-01-15T02:16:49;-3.70;99.90
39503;DHT22;26970;49.900;10.774;2024-01-15T02:19:18;-3.70;99.90
39503;DHT22;26970;49.900;10.774;2024-01-15T02:21:44;-3.70;99.90
39503;DHT22;26970;49.900;10.774;2024-01-15T02:24:09;-3.70;99.90
39503;DHT22;26970;49.900;10.774;2024-01-15T02:26:36;-3.70;99.90
39503;DHT22;26970;49.900;10.774;2024-01-15T02:29:04;-3.60;99.90
39503;DHT22;26970;49.900;10.774;2024-01-15T02:31:31;-3.60;99.90
39503;DHT22;26970;49.900;10.774;2024-01-15T02:33:57;-3.60;99.90
39503;DHT22;26970;49.900;10.774;2024-01-15T02:36:23;-3.60;99.90
39503;DHT22;26970;49.900;10.774;2024-01-15T02:38:48;-3.60;99.90
39503;DHT22;26970;49.900;10.774;2024-01-15T02:41:14;-3.60;99.90
39503;DHT22;26970;49.900;10.774;2024-01-15T02:43:40;-3.60;99.90
39503;DHT22;26970;49.900;10.774;2024-01-15T02:46:06;-3.60;99.90
39503;DHT22;26970;49.900;10.774;2024-01-15T02:48:32;-3.50;99.90
39503;DHT22;26970;49.900;10.774;2024-01-15T02:51:00;-3.50;99.90
39503;DHT22;26970;49.900;10.774;2024-01-15T02:53:26;-3.50;99.90
39503;DHT22;26970;49.900;10.774;2024-01-15T02:55:51;-3.50;99.90
39503;DHT22;26970;49.900;10.774;2024-01-15T02:58:17;-3.50;99.90
39503;DHT22;26970;49.900;10.774;2024-01-15T03:00:42;-3.60;99.90
39503;DHT22;26970;49.900;10.774;2024-01-15T03:03:09;-3.50;99.90
39503;DHT22;26970;49.900;10.774;2024-01-15T03:05:34;-3.50;99.90
39503;DHT22;26970;49.900;10.774;2024-01-15T03:08:01;-3.50;99.90
39503;DHT22;26970;49.900;10.774;2024-01-15T03:10:27;-3.50;99.90
39503;DHT22;26970;49.900;10.774;2024-01-15T03:12:52;-3.50;99.90
39503;DHT22;26970;49.900;10.774;2024-01-15T03:15:18;-3.50;99.90
39503;DHT22;26970;49.900;10.774;2024-01-15T03:17:44;-3.50;99.90
39503;DHT22;26970;49.900;10.774;2024-01-15T03:20:10;-3.50;99.90
39503;DHT22;26970;49.900;10.774;2024-01-15T03:22:36;-3.50;99.90
39503;DHT22;26970;49.900;10.774;2024-01-15T03:25:01;-3.50;99.90
39503;DHT22;26970;49.900;10.774;2024-01-15T03:27:27;-3.40;99.90
39503;DHT22;26970;49.900;10.774;2024-01-15T03:29:53;-3.40;99.90
39503;DHT22;26970;49.900;10.774;2024-01-15T03:32:18;-3.30;99.90
39503;DHT22;26970;49.900;10.774;2024-01-15T03:34:45;-3.40;99.90
39503;DHT22;26970;49.900;10.774;2024-01-15T03:37:11;-3.30;99.90
39503;DHT22;26970;49.900;10.774;2024-01-15T03:39:38;-3.30;99.90
39503;DHT22;26970;49.900;10.774;2024-01-15T03:42:03;-3.40;99.90
39503;DHT22;26970;49.900;10.774;2024-01-15T03:44:29;-3.40;99.90
39503;DHT22;26970;49.900;10.774;2024-01-15T03:46:55;-3.10;99.90
39503;DHT22;26970;49.900;10.774;2024-01-15T03:49:20;-3.30;99.90
39503;DHT22;26970;49.900;10.774;2024-01-15T03:51:46;-3.30;99.90
39503;DHT22;26970;49.900;10.774;2024-01-15T03:54:11;-3.30;99.90
39503;DHT22;26970;49.900;10.774;2024-01-15T03:56:37;-3.30;99.90
39503;DHT22;26970;49.900;10.774;2024-01-15T03:59:03;-3.20;99.90
39503;DHT22;26970;49.900;10.774;2024-01-15T04:01:28;-3.20;99.90
39503;DHT22;26970;49.900;10.774;2024-01-15T04:03:54;-3.20;99.90
39503;DHT22;26970;49.900;10.774;2024-01-15T04:06:20;-3.20;99.90
39503;DHT22;26970;49.900;10.774;2024-01-15T04:08:46;-3.20;99.90
39503;DHT22;26970;49.900;10.774;2024-01-15T04:11:11;-3.20;99.90
39503;DHT22;26970;49.900;10.774;2024-01-15T04:13:37;-3.20;99.90
39503;DHT22;26970;49.900;10.774;2024-01-15T04:16:03;-3.20;99.90
39503;DHT22;26970;49.900;10.774;2024-01-15T04:18:28;-3.10;99.90
39503;DHT22;26970;49.900;10.774;2024-01-15T04:20:54;-3.10;99.90
39503;DHT22;26970;49.900;10.774;2024-01-15T04:23:20;-3.10;99.90
39503;DHT22;26970;49.900;10.774;2024-01-15T04:25:45;-3.10;99.90
39503;DHT22;26970;49.900;10.774;2024-01-15T04:28:11;-3.10;99.90
39503;DHT22;26970;49.900;10.774;2024-01-15T04:30:37;-3.10;99.90
39503;DHT22;26970;49.900;10.774;2024-01-15T04:33:03;-3.10;99.90
39503;DHT22;26970;49.900;10.774;2024-01-15T04:35:29;-3.10;99.90
39503;DHT22;26970;49.900;10.774;2024-01-15T04:37:55;-3.10;99.90
39503;DHT22;26970;49.900;10.774;2024-01-15T04:40:20;-3.10;99.90
39503;DHT22;26970;49.900;10.774;2024-01-15T04:42:46;-3.00;99.90
39503;DHT22;26970;49.900;10.774;2024-01-15T04:45:11;-3.10;99.90
39503;DHT22;26970;49.900;10.774;2024-01-15T04:47:37;-3.10;99.90
39503;DHT22;26970;49.900;10.774;2024-01-15T04:50:04;-3.10;99.90
39503;DHT22;26970;49.900;10.774;2024-01-15T04:52:30;-3.00;99.90
39503;DHT22;26970;49.900;10.774;2024-01-15T04:54:55;-3.00;99.90
39503;DHT22;26970;49.900;10.774;2024-01-15T04:57:21;-3.00;99.90
39503;DHT22;26970;49.900;10.774;2024-01-15T04:59:46;-3.00;99.90
39503;DHT22;26970;49.900;10.774;2024-01-15T05:02:12;-3.00;99.90
39503;DHT22;26970;49.900;10.774;2024-01-15T05:04:37;-3.00;99.90
39503;DHT22;26970;49.900;10.774;2024-01-15T05:07:03;-3.00;99.90
39503;DHT22;26970;49.900;10.774;2024-01-15T05:09:28;-3.00;99.90
39503;DHT22;26970;49.900;10.774;2024-01-15T05:11:54;-3.00;99.90
39503;DHT22;26970;49.900;10.774;2024-01-15T05:14:19;-3.00;99.90
39503;DHT22;26970;49.900;10.774;2024-01-15T05:16:49;-3.00;99.90
39503;DHT22;26970;49.900;10.774;2024-01-15T05:19:15;-3.00;99.90
39503;DHT22;26970;49.900;10.774;2024-01-15T05:21:40;-3.00;99.90
39503;DHT22;26970;49.900;10.774;2024-01-15T05:24:07;-3.00;99.90
39503;DHT22;26970;49.900;10.774;2024-01-15T05:26:33;-3.00;99.90
39503;DHT22;26970;49.900;10.774;2024-01-15T05:28:59;-3.00;99.90
39503;DHT22;26970;49.900;10.774;2024-01-15T05:31:24;-3.00;99.90
39503;DHT22;26970;49.900;10.774;2024-01-15T05:33:50;-3.00;99.90
39503;DHT22;26970;49.900;10.774;2024-01-15T05:36:15;-2.90;99.90
39503;DHT22;26970;49.900;10.774;2024-01-15T05:38:41;-2.90;99.90
39503;DHT22;26970;49.900;10.774;2024-01-15T05:41:06;-3.00;99.90
39503;DHT22;26970;49.900;10.774;2024-01-15T05:43:32;-2.90;99.90
39503;DHT22;26970;49.900;10.774;2024-01-15T05:45:58;-2.90;99.90
39503;DHT22;26970;49.900;10.774;2024-01-15T05:48:23;-2.80;99.90
39503;DHT22;26970;49.900;10.774;2024-01-15T05:50:49;-2.90;99.90
39503;DHT22;26970;49.900;10.774;2024-01-15T05:53:14;-2.90;99.90
39503;DHT22;26970;49.900;10.774;2024-01-15T05:55:40;-2.90;99.90
39503;DHT22;26970;49.900;10.774;2024-01-15T05:58:06;-2.90;99.90
39503;DHT22;26970;49.900;10.774;2024-01-15T06:00:31;-2.80;99.90
39503;DHT22;26970;49.900;10.774;2024-01-15T06:02:58;-2.80;99.90
39503;DHT22;26970;49.900;10.774;2024-01-15T06:05:24;-2.80;99.90
39503;DHT22;26970;49.900;10.774;2024-01-15T06:07:50;-2.80;99.90
39503;DHT22;26970;49.900;10.774;2024-01-15T06:10:16;-2.80;99.90
39503;DHT22;26970;49.900;10.774;2024-01-15T06:12:43;-2.80;99.90
39503;DHT22;26970;49.900;10.774;2024-01-15T06:15:09;-2.80;99.90
39503;DHT22;26970;49.900;10.774;2024-01-15T06:17:34;-2.70;99.90
39503;DHT22;26970;49.900;10.774;2024-01-15T06:20:00;-2.80;99.90
39503;DHT22;26970;49.900;10.774;2024-01-15T06:22:25;-2.80;99.90
39503;DHT22;26970;49.900;10.774;2024-01-15T06:24:51;-2.80;99.90
39503;DHT22;26970;49.900;10.774;2024-01-15T06:27:16;-2.80;99.90
39503;DHT22;26970;49.900;10.774;2024-01-15T06:29:45;-2.80;99.90
39503;DHT22;26970;49.900;10.774;2024-01-15T06:32:14;-2.80;99.90
39503;DHT22;26970;49.900;10.774;2024-01-15T06:34:40;-2.80;99.90
39503;DHT22;26970;49.900;10.774;2024-01-15T06:37:06;-2.80;99.90
39503;DHT22;26970;49.900;10.774;2024-01-15T06:39:31;-2.80;99.90
39503;DHT22;26970;49.900;10.774;2024-01-15T06:41:57;-2.80;99.90
39503;DHT22;26970;49.900;10.774;2024-01-15T06:44:22;-2.80;99.90
39503;DHT22;26970;49.900;10.774;2024-01-15T06:46:48;-2.90;99.90
39503;DHT22;26970;49.900;10.774;2024-01-15T06:49:14;-2.90;99.90
39503;DHT22;26970;49.900;10.774;2024-01-15T06:51:39;-2.80;99.90
39503;DHT22;26970;49.900;10.774;2024-01-15T06:54:06;-2.80;99.90
39503;DHT22;26970;49.900;10.774;2024-01-15T06:56:32;-2.80;99.90
39503;DHT22;26970;49.900;10.774;2024-01-15T06:58:57;-2.80;99.90
39503;DHT22;26970;49.900;10.774;2024-01-15T07:01:23;-2.80;99.90
39503;DHT22;26970;49.900;10.774;2024-01-15T07:03:49;-2.80;99.90
39503;DHT22;26970;49.900;10.774;2024-01-15T07:06:15;-2.80;99.90
39503;DHT22;26970;49.900;10.774;2024-01-15T07:08:41;-2.80;99.90
39503;DHT22;26970;49.900;10.774;2024-01-15T07:11:07;-2.80;99.90
39503;DHT22;26970;49.900;10.774;2024-01-15T07:13:33;-2.80;99.90
39503;DHT22;26970;49.900;10.774;2024-01-15T07:15:59;-2.80;99.90
39503;DHT22;26970;49.900;10.774;2024-01-15T07:18:25;-2.80;99.90
39503;DHT22;26970;49.900;10.774;2024-01-15T07:20:51;-2.80;99.90
39503;DHT22;26970;49.900;10.774;2024-01-15T07:23:17;-2.70;99.90
39503;DHT22;26970;49.900;10.774;2024-01-15T07:25:43;-2.80;99.90
39503;DHT22;26970;49.900;10.774;2024-01-15T07:28:08;-2.80;99.90
39503;DHT22;26970;49.900;10.774;2024-01-15T07:30:34;-2.80;99.90
39503;DHT22;26970;49.900;10.774;2024-01-15T07:33:00;-2.80;99.90
39503;DHT22;26970;49.900;10.774;2024-01-15T07:35:26;-2.80;99.90
39503;DHT22;26970;49.900;10.774;2024-01-15T07:37:51;-2.70;99.90
39503;DHT22;26970;49.900;10.774;2024-01-15T07:40:17;-2.70;99.90
39503;DHT22;26970;49.900;10.774;2024-01-15T07:42:43;-2.70;99.90
39503;DHT22;26970;49.900;10.774;2024-01-15T07:45:11;-2.70;99.90
39503;DHT22;26970;49.900;10.774;2024-01-15T07:47:37;-2.70;99.90
39503;DHT22;26970;49.900;10.774;2024-01-15T07:50:03;-2.60;99.90
39503;DHT22;26970;49.900;10.774;2024-01-15T07:52:30;-2.70;99.90
39503;DHT22;26970;49.900;10.774;2024-01-15T07:54:56;-2.20;99.90
39503;DHT22;26970;49.900;10.774;2024-01-15T07:57:21;-2.60;99.90
39503;DHT22;26970;49.900;10.774;2024-01-15T07:59:48;-2.60;99.90
39503;DHT22;26970;49.900;10.774;2024-01-15T08:02:13;-2.60;99.90
39503;DHT22;26970;49.900;10.774;2024-01-15T08:04:39;-2.60;99.90
39503;DHT22;26970;49.900;10.774;2024-01-15T08:07:05;-2.60;99.90
39503;DHT22;26970;49.900;10.774;2024-01-15T08:09:32;-2.60;99.90
39503;DHT22;26970;49.900;10.774;2024-01-15T08:11:57;-2.50;99.90
39503;DHT22;26970;49.900;10.774;2024-01-15T08:14:23;-2.50;99.90
39503;DHT22;26970;49.900;10.774;2024-01-15T08:16:49;-2.50;99.90
39503;DHT22;26970;49.900;10.774;2024-01-15T08:19:14;-2.50;99.90
39503;DHT22;26970;49.900;10.774;2024-01-15T08:21:40;-2.50;99.90
39503;DHT22;26970;49.900;10.774;2024-01-15T08:24:06;-2.40;99.90
39503;DHT22;26970;49.900;10.774;2024-01-15T08:26:31;-2.40;99.90
39503;DHT22;26970;49.900;10.774;2024-01-15T08:29:00;-2.40;99.90
39503;DHT22;26970;49.900;10.774;2024-01-15T08:31:25;-2.30;99.90
39503;DHT22;26970;49.900;10.774;2024-01-15T08:33:51;-2.30;99.90
39503;DHT22;26970;49.900;10.774;2024-01-15T08:36:18;-2.20;99.90
39503;DHT22;26970;49.900;10.774;2024-01-15T08:38:44;-2.30;99.90
39503;DHT22;26970;49.900;10.774;2024-01-15T08:41:10;-2.30;99.90
39503;DHT22;26970;49.900;10.774;2024-01-15T08:43:36;-2.30;99.90
39503;DHT22;26970;49.900;10.774;2024-01-15T08:46:02;-2.20;99.90
39503;DHT22;26970;49.900;10.774;2024-01-15T08:48:28;-2.20;99.90
39503;DHT22;26970;49.900;10.774;2024-01-15T08:50:54;-2.20;99.90
39503;DHT22;26970;49.900;10.774;2024-01-15T08:53:22;-2.20;99.90
39503;DHT22;26970;49.900;10.774;2024-01-15T08:55:48;-2.10;99.90
39503;DHT22;26970;49.900;10.774;2024-01-15T08:58:14;-2.10;99.90
39503;DHT22;26970;49.900;10.774;2024-01-15T09:00:40;-2.00;99.90
39503;DHT22;26970;49.900;10.774;2024-01-15T09:03:06;-2.00;99.90
39503;DHT22;26970;49.900;10.774;2024-01-15T09:05:33;-2.00;99.90
39503;DHT22;26970;49.900;10.774;2024-01-15T09:07:59;-2.00;99.90
39503;DHT22;26970;49.900;10.774;2024-01-15T09:10:25;-2.10;99.90
39503;DHT22;26970;49.900;10.774;2024-01-15T09:12:50;-2.00;99.90
39503;DHT22;26970;49.900;10.774;2024-01-15T09:15:16;-2.00;99.90
39503;DHT22;26970;49.900;10.774;2024-01-15T09:17:43;-2.00;99.90
39503;DHT22;26970;49.900;10.774;2024-01-15T09:20:09;-1.90;99.90
39503;DHT22;26970;49.900;10.774;2024-01-15T09:22:38;-1.90;99.90
39503;DHT22;26970;49.900;10.774;2024-01-15T09:25:07;-1.90;99.90
39503;DHT22;26970;49.900;10.774;2024-01-15T09:27:35;-1.90;99.90
39503;DHT22;26970;49.900;10.774;2024-01-15T09:30:02;-1.90;99.90
39503;DHT22;26970;49.900;10.774;2024-01-15T09:32:28;-2.00;99.90
39503;DHT22;26970;49.900;10.774;2024-01-15T09:34:54;-2.00;99.90
39503;DHT22;26970;49.900;10.774;2024-01-15T09:37:21;-1.90;99.90
39503;DHT22;26970;49.900;10.774;2024-01-15T09:39:47;-1.90;99.90
39503;DHT22;26970;49.900;10.774;2024-01-15T09:42:13;-1.90;99.90
39503;DHT22;26970;49.900;10.774;2024-01-15T09:44:39;-1.90;99.90
39503;DHT22;26970;49.900;10.774;2024-01-15T09:47:05;-1.90;99.90
39503;DHT22;26970;49.900;10.774;2024-01-15T09:49:31;-1.90;99.90
39503;DHT22;26970;49.900;10.774;2024-01-15T09:51:57;-1.80;99.90
39503;DHT22;26970;49.900;10.774;2024-01-15T09:54:23;-1.80;99.90
39503;DHT22;26970;49.900;10.774;2024-01-15T09:56:49;-1.70;99.90
39503;DHT22;26970;49.900;10.774;2024-01-15T09:59:18;-1.70;99.90
39503;DHT22;26970;49.900;10.774;2024-01-15T10:01:45;-1.70;99.90
39503;DHT22;26970;49.900;10.774;2024-01-15T10:04:11;-1.60;99.90
39503;DHT22;26970;49.900;10.774;2024-01-15T10:06:44;-1.60;99.90
39503;DHT22;26970;49.900;10.774;2024-01-15T10:09:12;-1.60;99.90
39503;DHT22;26970;49.900;10.774;2024-01-15T10:11:41;-1.60;99.90
39503;DHT22;26970;49.900;10.774;2024-01-15T10:14:07;-1.60;99.90
39503;DHT22;26970;49.900;10.774;2024-01-15T10:16:33;-1.60;99.90
39503;DHT22;26970;49.900;10.774;2024-01-15T10:18:59;-1.60;99.90
39503;DHT22;26970;49.900;10.774;2024-01-15T10:21:25;-1.60;99.90
39503;DHT22;26970;49.900;10.774;2024-01-15T10:23:52;-1.60;99.90
39503;DHT22;26970;49.900;10.774;2024-01-15T10:26:18;-1.50;99.90
39503;DHT22;26970;49.900;10.774;2024-01-15T10:28:44;-1.60;99.90
39503;DHT22;26970;49.900;10.774;2024-01-15T10:31:09;-1.50;99.90
39503;DHT22;26970;49.900;10.774;2024-01-15T10:33:35;-1.50;99.90
39503;DHT22;26970;49.900;10.774;2024-01-15T10:36:01;-1.50;99.90
39503;DHT22;26970;49.900;10.774;2024-01-15T10:38:27;-1.50;99.90
39503;DHT22;26970;49.900;10.774;2024-01-15T10:40:54;-1.50;99.90
39503;DHT22;26970;49.900;10.774;2024-01-15T10:43:20;-1.50;99.90
39503;DHT22;26970;49.900;10.774;2024-01-15T10:45:48;-1.40;99.90
39503;DHT22;26970;49.900;10.774;2024-01-15T10:48:14;-1.40;99.90
39503;DHT22;26970;49.900;10.774;2024-01-15T10:50:41;-1.40;99.90
39503;DHT22;26970;49.900;10.774;2024-01-15T10:53:08;-1.40;99.90
39503;DHT22;26970;49.900;10.774;2024-01-15T10:55:35;-1.30;99.90
39503;DHT22;26970;49.900;10.774;2024-01-15T10:58:03;-1.30;99.90
39503;DHT22;26970;49.900;10.774;2024-01-15T11:00:36;-1.30;99.90
39503;DHT22;26970;49.900;10.774;2024-01-15T11:03:06;-1.20;99.90
39503;DHT22;26970;49.900;10.774;2024-01-15T11:05:57;-1.10;99.90
39503;DHT22;26970;49.900;10.774;2024-01-15T11:08:25;-1.10;99.90
39503;DHT22;26970;49.900;10.774;2024-01-15T11:10:51;-1.10;99.90
39503;DHT22;26970;49.900;10.774;2024-01-15T11:13:22;-1.10;99.90
39503;DHT22;26970;49.900;10.774;2024-01-15T11:16:08;-1.10;99.90
39503;DHT22;26970;49.900;10.774;2024-01-15T11:18:39;-1.10;99.90
39503;DHT22;26970;49.900;10.774;2024-01-15T11:28:54;-0.90;99.90
39503;DHT22;26970;49.900;10.774;2024-01-15T11:31:20;-0.90;99.90
39503;DHT22;26970;49.900;10.774;2024-01-15T11:33:52;-0.90;99.90
39503;DHT22;26970;49.900;10.774;2024-01-15T11:36:17;-0.90;99.90
39503;DHT22;26970;49.900;10.774;2024-01-15T11:38:43;-0.80;99.90
39503;DHT22;26970;49.900;10.774;2024-01-15T11:41:15;-0.70;99.90
39503;DHT22;26970;49.900;10.774;2024-01-15T11:43:43;-0.70;99.90
39503;DHT22;26970;49.900;10.774;2024-01-15T11:46:12;-0.70;99.90
39503;DHT22;26970;49.900;10.774;2024-01-15T11:48:43;-0.70;99.90
39503;DHT22;26970;49.900;10.774;2024-01-15T11:51:12;-0.70;99.90
39503;DHT22;26970;49.900;10.774;2024-01-15T11:53:47;-0.80;99.90
39503;DHT22;26970;49.900;10.774;2024-01-15T11:56:17;-0.80;99.90
39503;DHT22;26970;49.900;10.774;2024-01-15T11:58:43;-0.80;99.90
39503;DHT22;26970;49.900;10.774;2024-01-15T12:01:10;-0.80;99.90
39503;DHT22;26970;49.900;10.774;2024-01-15T12:03:36;-0.70;99.90
39503;DHT22;26970;49.900;10.774;2024-01-15T12:06:02;-0.70;99.90
39503;DHT22;26970;49.900;10.774;2024-01-15T12:08:30;-0.60;99.90
39503;DHT22;26970;49.900;10.774;2024-01-15T12:10:55;-0.50;99.90
39503;DHT22;26970;49.900;10.774;2024-01-15T12:13:22;-0.30;99.90
39503;DHT22;26970;49.900;10.774;2024-01-15T12:15:48;-0.20;99.90
39503;DHT22;26970;49.900;10.774;2024-01-15T12:18:15;-0.10;99.90
39503;DHT22;26970;49.900;10.774;2024-01-15T12:20:42;0.00;99.90
39503;DHT22;26970;49.900;10.774;2024-01-15T12:23:08;0.00;99.90
39503;DHT22;26970;49.900;10.774;2024-01-15T12:25:35;0.00;99.90
39503;DHT22;26970;49.900;10.774;2024-01-15T12:28:01;0.00;99.90
39503;DHT22;26970;49.900;10.774;2024-01-15T12:30:28;-0.10;99.90
39503;DHT22;26970;49.900;10.774;2024-01-15T12:32:54;-0.10;99.90
39503;DHT22;26970;49.900;10.774;2024-01-15T12:35:20;-0.10;99.90
39503;DHT22;26970;49.900;10.774;2024-01-15T12:37:47;-0.10;99.90
39503;DHT22;26970;49.900;10.774;2024-01-15T12:40:13;-0.20;99.90
39503;DHT22;26970;49.900;10.774;2024-01-15T12:42:43;-0.10;99.90
39503;DHT22;26970;49.900;10.774;2024-01-15T12:45:10;-0.20;99.90
39503;DHT22;26970;49.900;10.774;2024-01-15T12:47:37;-0.30;99.90
39503;DHT22;26970;49.900;10.774;2024-01-15T12:50:06;-0.30;99.90
39503;DHT22;26970;49.900;10.774;2024-01-15T12:52:32;-0.30;99.90
39503;DHT22;26970;49.900;10.774;2024-01-15T12:54:58;-0.30;99.90
39503;DHT22;26970;49.900;10.774;2024-01-15T12:57:23;-0.30;99.90
39503;DHT22;26970;49.900;10.774;2024-01-15T12:59:49;-0.20;99.90
39503;DHT22;26970;49.900;10.774;2024-01-15T13:02:15;-0.10;99.90
39503;DHT22;26970;49.900;10.774;2024-01-15T13:04:41;-0.20;99.90
39503;DHT22;26970;49.900;10.774;2024-01-15T13:07:07;-0.10;99.90
39503;DHT22;26970;49.900;10.774;2024-01-15T13:09:33;-0.20;99.90
39503;DHT22;26970;49.900;10.774;2024-01-15T13:12:00;-0.20;99.90
39503;DHT22;26970;49.900;10.774;2024-01-15T13:14:27;-0.20;99.90
39503;DHT22;26970;49.900;10.774;2024-01-15T13:16:52;-0.20;99.90
39503;DHT22;26970;49.900;10.774;2024-01-15T13:19:19;-0.20;99.90
39503;DHT22;26970;49.900;10.774;2024-01-15T13:21:45;-0.20;99.90
39503;DHT22;26970;49.900;10.774;2024-01-15T13:24:10;-0.30;99.90
39503;DHT22;26970;49.900;10.774;2024-01-15T13:26:36;-0.30;99.90
39503;DHT22;26970;49.900;10.774;2024-01-15T13:29:05;-0.20;99.90
39503;DHT22;26970;49.900;10.774;2024-01-15T13:31:32;-0.20;99.90
39503;DHT22;26970;49.900;10.774;2024-01-15T13:33:58;-0.20;99.90
39503;DHT22;26970;49.900;10.774;2024-01-15T13:36:24;-0.30;99.90
39503;DHT22;26970;49.900;10.774;2024-01-15T13:38:50;-0.30;99.90
39503;DHT22;26970;49.900;10.774;2024-01-15T13:41:17;-0.30;99.90
39503;DHT22;26970;49.900;10.774;2024-01-15T13:43:55;-0.30;99.90
39503;DHT22;26970;49.900;10.774;2024-01-15T13:46:24;-0.20;99.90
39503;DHT22;26970;49.900;10.774;2024-01-15T13:48:52;-0.10;99.90
39503;DHT22;26970;49.900;10.774;2024-01-15T13:51:17;-0.20;99.90
39503;DHT22;26970;49.900;10.774;2024-01-15T13:53:43;-0.30;99.90
39503;DHT22;26970;49.900;10.774;2024-01-15T13:56:08;-0.30;99.90
39503;DHT22;26970;49.900;10.774;2024-01-15T13:58:36;-0.40;99.90
39503;DHT22;26970;49.900;10.774;2024-01-15T14:01:02;-0.50;99.90
39503;DHT22;26970;49.900;10.774;2024-01-15T14:03:29;-0.50;99.90
39503;DHT22;26970;49.900;10.774;2024-01-15T14:05:55;-0.50;99.90
39503;DHT22;26970;49.900;10.774;2024-01-15T14:08:20;-0.50;99.90
39503;DHT22;26970;49.900;10.774;2024-01-15T14:10:46;-0.60;99.90
39503;DHT22;26970;49.900;10.774;2024-01-15T14:13:11;-0.60;99.90
39503;DHT22;26970;49.900;10.774;2024-01-15T14:15:37;-0.60;99.90
39503;DHT22;26970;49.900;10.774;2024-01-15T14:18:03;-0.60;99.90
39503;DHT22;26970;49.900;10.774;2024-01-15T14:20:29;-0.60;99.90
39503;DHT22;26970;49.900;10.774;2024-01-15T14:22:54;-0.60;99.90
39503;DHT22;26970;49.900;10.774;2024-01-15T14:25:20;-0.60;99.90
39503;DHT22;26970;49.900;10.774;2024-01-15T14:27:47;-0.70;99.90
39503;DHT22;26970;49.900;10.774;2024-01-15T14:30:13;-0.60;99.90
39503;DHT22;26970;49.900;10.774;2024-01-15T14:32:39;-0.60;99.90
39503;DHT22;26970;49.900;10.774;2024-01-15T14:35:05;-0.60;99.90
39503;DHT22;26970;49.900;10.774;2024-01-15T14:37:31;-0.60;99.90
39503;DHT22;26970;49.900;10.774;2024-01-15T14:39:57;-0.60;99.90
39503;DHT22;26970;49.900;10.774;2024-01-15T14:42:23;-0.60;99.90
39503;DHT22;26970;49.900;10.774;2024-01-15T14:44:49;-0.60;99.90
39503;DHT22;26970;49.900;10.774;2024-01-15T14:47:15;-0.70;99.90
39503;DHT22;26970;49.900;10.774;2024-01-15T14:49:40;-0.70;99.90
39503;DHT22;26970;49.900;10.774;2024-01-15T14:52:06;-0.70;99.90
39503;DHT22;26970;49.900;10.774;2024-01-15T14:54:32;-0.80;99.90
39503;DHT22;26970;49.900;10.774;2024-01-15T14:56:57;-0.80;99.90
39503;DHT22;26970;49.900;10.774;2024-01-15T14:59:23;-0.80;99.90
39503;DHT22;26970;49.900;10.774;2024-01-15T15:01:48;-0.90;99.90
39503;DHT22;26970;49.900;10.774;2024-01-15T15:04:14;-0.90;99.90
39503;DHT22;26970;49.900;10.774;2024-01-15T15:06:40;-0.90;99.90
39503;DHT22;26970;49.900;10.774;2024-01-15T15:09:05;-0.90;99.90
39503;DHT22;26970;49.900;10.774;2024-01-15T15:11:37;-0.80;99.90
39503;DHT22;26970;49.900;10.774;2024-01-15T15:14:02;-0.90;99.90
39503;DHT22;26970;49.900;10.774;2024-01-15T15:16:30;-0.90;99.90